sensor_id;sensor_type;location;lat;lon;timestamp;P1;durP1;ratioP1;P2;durP2;ratioP2
705;SDS011;21234;48.690;9.016;2022-11-20T00:00:15;4.03;;;3.43;;
705;SDS011;21234;48.690;9.016;2022-11-20T00:02:42;3.20;;;2.90;;
705;SDS011;21234;48.690;9.016;2022-11-20T00:05:09;2.83;;;2.60;;
705;SDS011;21234;48.690;9.016;2022-11-20T00:07:36;3.70;;;2.87;;
705;SDS011;21234;48.690;9.016;2022-11-20T00:10:04;3.50;;;2.67;;
705;SDS011;21234;48.690;9.016;2022-11-20T00:12:31;2.80;;;2.30;;
705;SDS011;21234;48.690;9.016;2022-11-20T00:14:58;3.03;;;2.47;;
705;SDS011;21234;48.690;9.016;2022-11-20T00:17:25;2.90;;;2.60;;
705;SDS011;21234;48.690;9.016;2022-11-20T00:19:52;4.10;;;3.30;;
705;SDS011;21234;48.690;9.016;2022-11-20T00:22:18;3.10;;;2.77;;
705;SDS011;21234;48.690;9.016;2022-11-20T00:24:45;4.40;;;2.60;;
705;SDS011;21234;48.690;9.016;2022-11-20T00:27:13;4.93;;;3.13;;
705;SDS011;21234;48.690;9.016;2022-11-20T00:29:40;3.43;;;2.70;;
705;SDS011;21234;48.690;9.016;2022-11-20T00:32:07;3.30;;;3.00;;
705;SDS011;21234;48.690;9.016;2022-11-20T00:34:33;3.27;;;2.43;;
705;SDS011;21234;48.690;9.016;2022-11-20T00:37:00;3.10;;;2.50;;
705;SDS011;21234;48.690;9.016;2022-11-20T00:39:27;4.93;;;2.33;;
705;SDS011;21234;48.690;9.016;2022-11-20T00:41:53;2.73;;;2.43;;
705;SDS011;21234;48.690;9.016;2022-11-20T00:44:21;2.70;;;1.90;;
705;SDS011;21234;48.690;9.016;2022-11-20T00:46:48;2.53;;;2.33;;
705;SDS011;21234;48.690;9.016;2022-11-20T00:49:15;2.90;;;2.63;;
705;SDS011;21234;48.690;9.016;2022-11-20T00:51:41;2.43;;;1.87;;
705;SDS011;21234;48.690;9.016;2022-11-20T00:54:08;3.50;;;2.10;;
705;SDS011;21234;48.690;9.016;2022-11-20T00:56:35;1.93;;;1.83;;
705;SDS011;21234;48.690;9.016;2022-11-20T00:59:01;3.97;;;2.60;;
705;SDS011;21234;48.690;9.016;2022-11-20T01:01:30;2.30;;;2.00;;
705;SDS011;21234;48.690;9.016;2022-11-20T01:03:57;2.23;;;1.77;;
705;SDS011;21234;48.690;9.016;2022-11-20T01:06:26;3.23;;;2.87;;
705;SDS011;21234;48.690;9.016;2022-11-20T01:08:55;4.37;;;3.17;;
705;SDS011;21234;48.690;9.016;2022-11-20T01:11:24;4.50;;;2.57;;
705;SDS011;21234;48.690;9.016;2022-11-20T01:13:52;3.43;;;2.83;;
705;SDS011;21234;48.690;9.016;2022-11-20T01:16:21;2.93;;;2.70;;
705;SDS011;21234;48.690;9.016;2022-11-20T01:18:51;2.83;;;2.40;;
705;SDS011;21234;48.690;9.016;2022-11-20T01:21:20;3.77;;;3.07;;
705;SDS011;21234;48.690;9.016;2022-11-20T01:23:48;3.57;;;2.80;;
705;SDS011;21234;48.690;9.016;2022-11-20T01:26:17;2.60;;;2.37;;
705;SDS011;21234;48.690;9.016;2022-11-20T01:28:45;3.33;;;2.77;;
705;SDS011;21234;48.690;9.016;2022-11-20T01:31:13;2.77;;;1.90;;
705;SDS011;21234;48.690;9.016;2022-11-20T01:33:41;2.43;;;2.23;;
705;SDS011;21234;48.690;9.016;2022-11-20T01:36:10;3.37;;;2.40;;
705;SDS011;21234;48.690;9.016;2022-11-20T01:38:38;2.47;;;2.00;;
705;SDS011;21234;48.690;9.016;2022-11-20T01:41:05;3.33;;;2.40;;
705;SDS011;21234;48.690;9.016;2022-11-20T01:43:33;2.40;;;2.20;;
705;SDS011;21234;48.690;9.016;2022-11-20T01:46:03;3.50;;;2.07;;
705;SDS011;21234;48.690;9.016;2022-11-20T01:48:34;2.97;;;2.60;;
705;SDS011;21234;48.690;9.016;2022-11-20T01:51:05;9.70;;;2.23;;
705;SDS011;21234;48.690;9.016;2022-11-20T01:53:38;3.53;;;1.90;;
705;SDS011;21234;48.690;9.016;2022-11-20T01:56:05;3.03;;;2.03;;
705;SDS011;21234;48.690;9.016;2022-11-20T01:58:37;2.07;;;1.87;;
705;SDS011;21234;48.690;9.016;2022-11-20T02:01:07;2.70;;;2.40;;
705;SDS011;21234;48.690;9.016;2022-11-20T02:03:33;2.60;;;2.00;;
705;SDS011;21234;48.690;9.016;2022-11-20T02:06:02;2.17;;;1.97;;
705;SDS011;21234;48.690;9.016;2022-11-20T02:08:34;3.00;;;1.70;;
705;SDS011;21234;48.690;9.016;2022-11-20T02:11:03;3.23;;;2.57;;
705;SDS011;21234;48.690;9.016;2022-11-20T02:13:30;2.30;;;2.10;;
705;SDS011;21234;48.690;9.016;2022-11-20T02:16:15;3.03;;;2.27;;
705;SDS011;21234;48.690;9.016;2022-11-20T02:18:45;2.90;;;2.10;;
705;SDS011;21234;48.690;9.016;2022-11-20T02:21:18;4.00;;;2.17;;
705;SDS011;21234;48.690;9.016;2022-11-20T02:26:40;3.70;;;1.70;;
705;SDS011;21234;48.690;9.016;2022-11-20T02:29:11;2.80;;;1.97;;
705;SDS011;21234;48.690;9.016;2022-11-20T02:31:38;3.20;;;2.03;;
705;SDS011;21234;48.690;9.016;2022-11-20T02:34:08;4.53;;;2.43;;
705;SDS011;21234;48.690;9.016;2022-11-20T02:36:35;3.20;;;2.40;;
705;SDS011;21234;48.690;9.016;2022-11-20T02:39:05;3.67;;;3.00;;
705;SDS011;21234;48.690;9.016;2022-11-20T02:41:35;3.63;;;2.57;;
705;SDS011;21234;48.690;9.016;2022-11-20T02:44:03;3.60;;;3.17;;
705;SDS011;21234;48.690;9.016;2022-11-20T02:46:31;3.53;;;3.10;;
705;SDS011;21234;48.690;9.016;2022-11-20T02:48:58;5.67;;;4.20;;
705;SDS011;21234;48.690;9.016;2022-11-20T02:51:25;3.23;;;2.53;;
705;SDS011;21234;48.690;9.016;2022-11-20T02:53:51;8.47;;;2.90;;
705;SDS011;21234;48.690;9.016;2022-11-20T02:56:18;3.90;;;3.40;;
705;SDS011;21234;48.690;9.016;2022-11-20T02:58:46;3.43;;;2.60;;
705;SDS011;21234;48.690;9.016;2022-11-20T03:01:14;3.10;;;2.80;;
705;SDS011;21234;48.690;9.016;2022-11-20T03:03:40;4.37;;;3.57;;
705;SDS011;21234;48.690;9.016;2022-11-20T03:06:07;5.10;;;4.33;;
705;SDS011;21234;48.690;9.016;2022-11-20T03:08:34;3.77;;;2.43;;
705;SDS011;21234;48.690;9.016;2022-11-20T03:11:04;3.33;;;3.00;;
705;SDS011;21234;48.690;9.016;2022-11-20T03:13:33;3.80;;;3.50;;
705;SDS011;21234;48.690;9.016;2022-11-20T03:16:05;3.80;;;2.83;;
705;SDS011;21234;48.690;9.016;2022-11-20T03:18:34;3.00;;;2.70;;
705;SDS011;21234;48.690;9.016;2022-11-20T03:21:00;5.83;;;3.33;;
705;SDS011;21234;48.690;9.016;2022-11-20T03:23:28;3.33;;;3.03;;
705;SDS011;21234;48.690;9.016;2022-11-20T03:25:55;4.10;;;3.27;;
705;SDS011;21234;48.690;9.016;2022-11-20T03:28:22;3.57;;;3.27;;
705;SDS011;21234;48.690;9.016;2022-11-20T03:30:49;4.43;;;3.30;;
705;SDS011;21234;48.690;9.016;2022-11-20T03:33:17;5.17;;;3.53;;
705;SDS011;21234;48.690;9.016;2022-11-20T03:35:43;3.57;;;3.23;;
705;SDS011;21234;48.690;9.016;2022-11-20T03:38:10;4.37;;;2.97;;
705;SDS011;21234;48.690;9.016;2022-11-20T03:40:37;3.80;;;2.30;;
705;SDS011;21234;48.690;9.016;2022-11-20T03:43:03;4.73;;;3.53;;
705;SDS011;21234;48.690;9.016;2022-11-20T03:45:30;2.80;;;2.23;;
705;SDS011;21234;48.690;9.016;2022-11-20T03:47:57;2.90;;;2.60;;
705;SDS011;21234;48.690;9.016;2022-11-20T03:50:25;3.63;;;2.90;;
705;SDS011;21234;48.690;9.016;2022-11-20T03:52:51;2.50;;;2.10;;
705;SDS011;21234;48.690;9.016;2022-11-20T03:55:18;4.60;;;2.60;;
705;SDS011;21234;48.690;9.016;2022-11-20T03:57:45;3.40;;;2.93;;
705;SDS011;21234;48.690;9.016;2022-11-20T04:00:12;6.27;;;3.33;;
705;SDS011;21234;48.690;9.016;2022-11-20T04:02:39;3.00;;;2.70;;
705;SDS011;21234;48.690;9.016;2022-11-20T04:05:06;3.20;;;2.67;;
705;SDS011;21234;48.690;9.016;2022-11-20T04:07:35;2.40;;;2.20;;
705;SDS011;21234;48.690;9.016;2022-11-20T04:10:03;8.90;;;2.60;;
705;SDS011;21234;48.690;9.016;2022-11-20T04:12:31;3.53;;;2.50;;
705;SDS011;21234;48.690;9.016;2022-11-20T04:14:59;2.50;;;2.30;;
705;SDS011;21234;48.690;9.016;2022-11-20T04:17:26;3.73;;;3.33;;
705;SDS011;21234;48.690;9.016;2022-11-20T04:19:52;3.80;;;2.67;;
705;SDS011;21234;48.690;9.016;2022-11-20T04:22:19;2.20;;;2.00;;
705;SDS011;21234;48.690;9.016;2022-11-20T04:24:47;3.67;;;3.17;;
705;SDS011;21234;48.690;9.016;2022-11-20T04:27:14;2.90;;;2.60;;
705;SDS011;21234;48.690;9.016;2022-11-20T04:29:40;3.40;;;2.47;;
705;SDS011;21234;48.690;9.016;2022-11-20T04:32:07;3.57;;;2.30;;
705;SDS011;21234;48.690;9.016;2022-11-20T04:34:34;3.17;;;2.07;;
705;SDS011;21234;48.690;9.016;2022-11-20T04:37:00;3.40;;;2.40;;
705;SDS011;21234;48.690;9.016;2022-11-20T04:39:27;2.53;;;2.33;;
705;SDS011;21234;48.690;9.016;2022-11-20T04:41:55;2.40;;;2.20;;
705;SDS011;21234;48.690;9.016;2022-11-20T04:44:36;3.50;;;2.10;;
705;SDS011;21234;48.690;9.016;2022-11-20T04:47:02;4.37;;;2.70;;
705;SDS011;21234;48.690;9.016;2022-11-20T04:49:29;6.73;;;3.17;;
705;SDS011;21234;48.690;9.016;2022-11-20T04:51:56;3.50;;;3.27;;
705;SDS011;21234;48.690;9.016;2022-11-20T04:54:23;3.20;;;2.90;;
705;SDS011;21234;48.690;9.016;2022-11-20T04:56:50;4.00;;;3.23;;
705;SDS011;21234;48.690;9.016;2022-11-20T04:59:18;2.90;;;2.37;;
705;SDS011;21234;48.690;9.016;2022-11-20T05:01:45;2.33;;;2.03;;
705;SDS011;21234;48.690;9.016;2022-11-20T05:04:11;4.40;;;3.10;;
705;SDS011;21234;48.690;9.016;2022-11-20T05:06:38;2.73;;;2.53;;
705;SDS011;21234;48.690;9.016;2022-11-20T05:09:05;3.10;;;2.20;;
705;SDS011;21234;48.690;9.016;2022-11-20T05:11:31;2.97;;;2.70;;
705;SDS011;21234;48.690;9.016;2022-11-20T05:13:58;4.10;;;2.90;;
705;SDS011;21234;48.690;9.016;2022-11-20T05:16:27;4.40;;;2.83;;
705;SDS011;21234;48.690;9.016;2022-11-20T05:18:54;4.10;;;2.57;;
705;SDS011;21234;48.690;9.016;2022-11-20T05:21:20;3.60;;;2.67;;
705;SDS011;21234;48.690;9.016;2022-11-20T05:23:48;5.07;;;2.63;;
705;SDS011;21234;48.690;9.016;2022-11-20T05:26:15;2.77;;;2.53;;
705;SDS011;21234;48.690;9.016;2022-11-20T05:28:43;4.63;;;2.63;;
705;SDS011;21234;48.690;9.016;2022-11-20T05:31:11;2.90;;;2.37;;
705;SDS011;21234;48.690;9.016;2022-11-20T05:33:42;3.00;;;2.57;;
705;SDS011;21234;48.690;9.016;2022-11-20T05:36:10;2.50;;;2.30;;
705;SDS011;21234;48.690;9.016;2022-11-20T05:38:37;2.30;;;2.20;;
705;SDS011;21234;48.690;9.016;2022-11-20T05:41:04;2.87;;;2.53;;
705;SDS011;21234;48.690;9.016;2022-11-20T05:43:32;2.27;;;2.00;;
705;SDS011;21234;48.690;9.016;2022-11-20T05:46:00;3.00;;;1.87;;
705;SDS011;21234;48.690;9.016;2022-11-20T05:48:27;2.90;;;2.30;;
705;SDS011;21234;48.690;9.016;2022-11-20T05:50:56;3.10;;;2.70;;
705;SDS011;21234;48.690;9.016;2022-11-20T05:53:23;4.90;;;2.60;;
705;SDS011;21234;48.690;9.016;2022-11-20T05:55:55;3.90;;;2.13;;
705;SDS011;21234;48.690;9.016;2022-11-20T05:58:23;3.27;;;2.00;;
705;SDS011;21234;48.690;9.016;2022-11-20T06:00:49;3.90;;;2.10;;
705;SDS011;21234;48.690;9.016;2022-11-20T06:03:16;2.30;;;2.20;;
705;SDS011;21234;48.690;9.016;2022-11-20T06:05:43;2.57;;;2.37;;
705;SDS011;21234;48.690;9.016;2022-11-20T06:08:11;3.50;;;2.17;;
705;SDS011;21234;48.690;9.016;2022-11-20T06:10:37;2.23;;;1.97;;
705;SDS011;21234;48.690;9.016;2022-11-20T06:13:04;4.53;;;2.40;;
705;SDS011;21234;48.690;9.016;2022-11-20T06:15:31;2.93;;;2.30;;
705;SDS011;21234;48.690;9.016;2022-11-20T06:17:57;2.63;;;2.10;;
705;SDS011;21234;48.690;9.016;2022-11-20T06:20:24;4.30;;;2.90;;
705;SDS011;21234;48.690;9.016;2022-11-20T06:22:51;2.70;;;2.00;;
705;SDS011;21234;48.690;9.016;2022-11-20T06:25:19;2.90;;;2.70;;
705;SDS011;21234;48.690;9.016;2022-11-20T06:27:45;3.53;;;2.07;;
705;SDS011;21234;48.690;9.016;2022-11-20T06:30:12;2.50;;;2.30;;
705;SDS011;21234;48.690;9.016;2022-11-20T06:32:39;1.70;;;1.53;;
705;SDS011;21234;48.690;9.016;2022-11-20T06:35:06;2.10;;;1.73;;
705;SDS011;21234;48.690;9.016;2022-11-20T06:37:33;11.60;;;3.17;;
705;SDS011;21234;48.690;9.016;2022-11-20T06:40:00;2.00;;;1.80;;
705;SDS011;21234;48.690;9.016;2022-11-20T06:42:28;1.90;;;1.70;;
705;SDS011;21234;48.690;9.016;2022-11-20T06:44:55;6.70;;;2.60;;
705;SDS011;21234;48.690;9.016;2022-11-20T06:47:22;2.10;;;1.90;;
705;SDS011;21234;48.690;9.016;2022-11-20T06:49:48;1.77;;;1.67;;
705;SDS011;21234;48.690;9.016;2022-11-20T06:52:15;2.07;;;1.83;;
705;SDS011;21234;48.690;9.016;2022-11-20T06:54:42;3.63;;;1.93;;
705;SDS011;21234;48.690;9.016;2022-11-20T06:57:08;4.67;;;2.37;;
705;SDS011;21234;48.690;9.016;2022-11-20T06:59:36;2.00;;;1.60;;
705;SDS011;21234;48.690;9.016;2022-11-20T07:02:03;1.70;;;1.60;;
705;SDS011;21234;48.690;9.016;2022-11-20T07:04:30;2.60;;;1.90;;
705;SDS011;21234;48.690;9.016;2022-11-20T07:06:56;1.97;;;1.60;;
705;SDS011;21234;48.690;9.016;2022-11-20T07:09:23;2.20;;;2.00;;
705;SDS011;21234;48.690;9.016;2022-11-20T07:11:50;3.23;;;1.97;;
705;SDS011;21234;48.690;9.016;2022-11-20T07:14:16;2.93;;;1.90;;
705;SDS011;21234;48.690;9.016;2022-11-20T07:16:44;2.00;;;1.80;;
705;SDS011;21234;48.690;9.016;2022-11-20T07:19:11;1.50;;;1.33;;
705;SDS011;21234;48.690;9.016;2022-11-20T07:21:38;1.83;;;1.73;;
705;SDS011;21234;48.690;9.016;2022-11-20T07:24:04;2.20;;;1.87;;
705;SDS011;21234;48.690;9.016;2022-11-20T07:26:31;1.83;;;1.73;;
705;SDS011;21234;48.690;9.016;2022-11-20T07:28:58;2.03;;;1.83;;
705;SDS011;21234;48.690;9.016;2022-11-20T07:31:25;1.93;;;1.33;;
705;SDS011;21234;48.690;9.016;2022-11-20T07:33:53;1.70;;;1.60;;
705;SDS011;21234;48.690;9.016;2022-11-20T07:36:19;2.47;;;2.00;;
705;SDS011;21234;48.690;9.016;2022-11-20T07:38:46;1.97;;;1.77;;
705;SDS011;21234;48.690;9.016;2022-11-20T07:41:12;2.50;;;1.83;;
705;SDS011;21234;48.690;9.016;2022-11-20T07:43:39;2.30;;;2.07;;
705;SDS011;21234;48.690;9.016;2022-11-20T07:46:06;7.77;;;1.90;;
705;SDS011;21234;48.690;9.016;2022-11-20T07:48:33;1.73;;;1.63;;
705;SDS011;21234;48.690;9.016;2022-11-20T07:51:01;1.30;;;1.20;;
705;SDS011;21234;48.690;9.016;2022-11-20T07:53:28;2.50;;;1.90;;
705;SDS011;21234;48.690;9.016;2022-11-20T07:55:54;1.73;;;1.50;;
705;SDS011;21234;48.690;9.016;2022-11-20T07:58:21;3.57;;;1.70;;
705;SDS011;21234;48.690;9.016;2022-11-20T08:00:48;1.37;;;1.27;;
705;SDS011;21234;48.690;9.016;2022-11-20T08:03:15;4.17;;;1.47;;
705;SDS011;21234;48.690;9.016;2022-11-20T08:05:41;2.60;;;1.63;;
705;SDS011;21234;48.690;9.016;2022-11-20T08:08:10;2.50;;;1.50;;
705;SDS011;21234;48.690;9.016;2022-11-20T08:10:36;2.80;;;2.00;;
705;SDS011;21234;48.690;9.016;2022-11-20T08:13:03;1.70;;;1.60;;
705;SDS011;21234;48.690;9.016;2022-11-20T08:15:48;1.60;;;1.40;;
705;SDS011;21234;48.690;9.016;2022-11-20T08:18:16;2.20;;;1.23;;
705;SDS011;21234;48.690;9.016;2022-11-20T08:20:43;1.33;;;1.23;;
705;SDS011;21234;48.690;9.016;2022-11-20T08:23:12;2.03;;;1.80;;
705;SDS011;21234;48.690;9.016;2022-11-20T08:25:39;2.30;;;2.07;;
705;SDS011;21234;48.690;9.016;2022-11-20T08:28:06;2.20;;;1.53;;
705;SDS011;21234;48.690;9.016;2022-11-20T08:30:34;3.13;;;1.50;;
705;SDS011;21234;48.690;9.016;2022-11-20T08:33:02;2.87;;;2.00;;
705;SDS011;21234;48.690;9.016;2022-11-20T08:35:32;2.13;;;1.60;;
705;SDS011;21234;48.690;9.016;2022-11-20T08:38:00;2.10;;;1.50;;
705;SDS011;21234;48.690;9.016;2022-11-20T08:40:28;2.60;;;2.23;;
705;SDS011;21234;48.690;9.016;2022-11-20T08:42:54;2.10;;;1.90;;
705;SDS011;21234;48.690;9.016;2022-11-20T08:45:21;2.73;;;2.10;;
705;SDS011;21234;48.690;9.016;2022-11-20T08:47:48;1.50;;;1.40;;
705;SDS011;21234;48.690;9.016;2022-11-20T08:50:15;1.83;;;1.50;;
705;SDS011;21234;48.690;9.016;2022-11-20T08:52:44;2.60;;;1.13;;
705;SDS011;21234;48.690;9.016;2022-11-20T08:55:10;1.70;;;1.30;;
705;SDS011;21234;48.690;9.016;2022-11-20T08:57:38;1.20;;;1.10;;
705;SDS011;21234;48.690;9.016;2022-11-20T09:00:06;1.30;;;1.10;;
705;SDS011;21234;48.690;9.016;2022-11-20T09:02:33;2.00;;;1.33;;
705;SDS011;21234;48.690;9.016;2022-11-20T09:05:01;1.50;;;1.07;;
705;SDS011;21234;48.690;9.016;2022-11-20T09:07:28;2.00;;;1.63;;
705;SDS011;21234;48.690;9.016;2022-11-20T09:09:55;1.30;;;1.20;;
705;SDS011;21234;48.690;9.016;2022-11-20T09:12:22;6.20;;;3.03;;
705;SDS011;21234;48.690;9.016;2022-11-20T09:14:50;1.67;;;1.57;;
705;SDS011;21234;48.690;9.016;2022-11-20T09:17:17;2.00;;;1.80;;
705;SDS011;21234;48.690;9.016;2022-11-20T09:19:45;1.20;;;0.90;;
705;SDS011;21234;48.690;9.016;2022-11-20T09:22:12;1.60;;;1.13;;
705;SDS011;21234;48.690;9.016;2022-11-20T09:24:39;2.63;;;1.20;;
705;SDS011;21234;48.690;9.016;2022-11-20T09:27:05;1.90;;;0.90;;
705;SDS011;21234;48.690;9.016;2022-11-20T09:29:32;1.43;;;1.13;;
705;SDS011;21234;48.690;9.016;2022-11-20T09:32:00;0.80;;;0.80;;
705;SDS011;21234;48.690;9.016;2022-11-20T09:34:26;1.47;;;1.37;;
705;SDS011;21234;48.690;9.016;2022-11-20T09:36:53;1.13;;;0.83;;
705;SDS011;21234;48.690;9.016;2022-11-20T09:39:20;1.53;;;0.60;;
705;SDS011;21234;48.690;9.016;2022-11-20T09:44:53;2.20;;;0.70;;
705;SDS011;21234;48.690;9.016;2022-11-20T09:47:35;0.70;;;0.70;;
705;SDS011;21234;48.690;9.016;2022-11-20T09:50:19;0.70;;;0.53;;
705;SDS011;21234;48.690;9.016;2022-11-20T09:52:56;1.00;;;0.70;;
705;SDS011;21234;48.690;9.016;2022-11-20T09:55:34;0.73;;;0.50;;
705;SDS011;21234;48.690;9.016;2022-11-20T09:58:02;0.80;;;0.50;;
705;SDS011;21234;48.690;9.016;2022-11-20T10:00:32;0.73;;;0.53;;
705;SDS011;21234;48.690;9.016;2022-11-20T10:03:02;1.10;;;0.70;;
705;SDS011;21234;48.690;9.016;2022-11-20T10:05:38;0.90;;;0.67;;
705;SDS011;21234;48.690;9.016;2022-11-20T10:08:11;1.27;;;0.80;;
705;SDS011;21234;48.690;9.016;2022-11-20T10:10:44;0.60;;;0.40;;
705;SDS011;21234;48.690;9.016;2022-11-20T10:13:18;0.83;;;0.60;;
705;SDS011;21234;48.690;9.016;2022-11-20T10:15:56;0.80;;;0.47;;
705;SDS011;21234;48.690;9.016;2022-11-20T10:18:37;1.33;;;0.50;;
705;SDS011;21234;48.690;9.016;2022-11-20T10:21:16;5.00;;;0.87;;
705;SDS011;21234;48.690;9.016;2022-11-20T10:24:02;1.20;;;0.67;;
705;SDS011;21234;48.690;9.016;2022-11-20T10:26:54;0.70;;;0.50;;
705;SDS011;21234;48.690;9.016;2022-11-20T10:29:32;0.70;;;0.53;;
705;SDS011;21234;48.690;9.016;2022-11-20T10:32:01;0.63;;;0.63;;
705;SDS011;21234;48.690;9.016;2022-11-20T10:34:33;1.00;;;0.90;;
705;SDS011;21234;48.690;9.016;2022-11-20T10:37:09;3.17;;;0.60;;
705;SDS011;21234;48.690;9.016;2022-11-20T10:39:42;0.70;;;0.43;;
705;SDS011;21234;48.690;9.016;2022-11-20T10:42:17;0.70;;;0.70;;
705;SDS011;21234;48.690;9.016;2022-11-20T10:44:52;2.53;;;0.90;;
705;SDS011;21234;48.690;9.016;2022-11-20T10:47:36;1.30;;;0.90;;
705;SDS011;21234;48.690;9.016;2022-11-20T10:50:05;1.10;;;0.73;;
705;SDS011;21234;48.690;9.016;2022-11-20T10:52:37;0.80;;;0.50;;
705;SDS011;21234;48.690;9.016;2022-11-20T10:55:16;1.00;;;0.77;;
705;SDS011;21234;48.690;9.016;2022-11-20T10:57:54;1.10;;;0.87;;
705;SDS011;21234;48.690;9.016;2022-11-20T11:00:32;0.83;;;0.63;;
705;SDS011;21234;48.690;9.016;2022-11-20T11:02:59;0.83;;;0.83;;
705;SDS011;21234;48.690;9.016;2022-11-20T11:05:33;1.00;;;0.80;;
705;SDS011;21234;48.690;9.016;2022-11-20T11:08:04;0.80;;;0.67;;
705;SDS011;21234;48.690;9.016;2022-11-20T11:10:39;2.23;;;0.87;;
705;SDS011;21234;48.690;9.016;2022-11-20T11:13:23;0.70;;;0.70;;
705;SDS011;21234;48.690;9.016;2022-11-20T11:15:52;1.37;;;0.80;;
705;SDS011;21234;48.690;9.016;2022-11-20T11:18:23;1.27;;;1.00;;
705;SDS011;21234;48.690;9.016;2022-11-20T11:20:53;2.10;;;1.13;;
705;SDS011;21234;48.690;9.016;2022-11-20T11:23:29;0.80;;;0.80;;
705;SDS011;21234;48.690;9.016;2022-11-20T11:25:59;1.00;;;0.90;;
705;SDS011;21234;48.690;9.016;2022-11-20T11:28:27;0.77;;;0.73;;
705;SDS011;21234;48.690;9.016;2022-11-20T11:30:54;1.20;;;1.03;;
705;SDS011;21234;48.690;9.016;2022-11-20T11:33:21;1.63;;;0.90;;
705;SDS011;21234;48.690;9.016;2022-11-20T11:35:50;3.30;;;1.30;;
705;SDS011;21234;48.690;9.016;2022-11-20T11:38:22;1.90;;;1.13;;
705;SDS011;21234;48.690;9.016;2022-11-20T11:40:55;3.47;;;1.13;;
705;SDS011;21234;48.690;9.016;2022-11-20T11:43:24;1.97;;;1.27;;
705;SDS011;21234;48.690;9.016;2022-11-20T11:46:25;2.87;;;1.00;;
705;SDS011;21234;48.690;9.016;2022-11-20T11:48:57;0.80;;;0.70;;
705;SDS011;21234;48.690;9.016;2022-11-20T11:51:27;1.20;;;1.10;;
705;SDS011;21234;48.690;9.016;2022-11-20T11:54:00;2.40;;;0.90;;
705;SDS011;21234;48.690;9.016;2022-11-20T11:56:31;1.30;;;1.10;;
705;SDS011;21234;48.690;9.016;2022-11-20T11:59:00;1.33;;;0.63;;
705;SDS011;21234;48.690;9.016;2022-11-20T12:01:31;2.00;;;1.17;;
705;SDS011;21234;48.690;9.016;2022-11-20T12:04:04;1.10;;;1.00;;
705;SDS011;21234;48.690;9.016;2022-11-20T12:06:42;2.10;;;0.63;;
705;SDS011;21234;48.690;9.016;2022-11-20T12:09:12;1.87;;;0.83;;
705;SDS011;21234;48.690;9.016;2022-11-20T12:11:42;0.90;;;0.80;;
705;SDS011;21234;48.690;9.016;2022-11-20T12:14:14;1.50;;;1.10;;
705;SDS011;21234;48.690;9.016;2022-11-20T12:16:48;1.57;;;0.70;;
705;SDS011;21234;48.690;9.016;2022-11-20T12:19:17;2.40;;;0.90;;
705;SDS011;21234;48.690;9.016;2022-11-20T12:21:49;2.10;;;0.60;;
705;SDS011;21234;48.690;9.016;2022-11-20T12:30:14;1.17;;;0.70;;
705;SDS011;21234;48.690;9.016;2022-11-20T12:32:58;0.63;;;0.63;;
705;SDS011;21234;48.690;9.016;2022-11-20T12:35:42;0.80;;;0.60;;
705;SDS011;21234;48.690;9.016;2022-11-20T12:41:12;1.27;;;1.00;;
705;SDS011;21234;48.690;9.016;2022-11-20T12:44:19;1.57;;;0.67;;
705;SDS011;21234;48.690;9.016;2022-11-20T12:47:20;0.70;;;0.63;;
705;SDS011;21234;48.690;9.016;2022-11-20T12:49:56;0.80;;;0.63;;
705;SDS011;21234;48.690;9.016;2022-11-20T12:52:37;3.07;;;0.73;;
705;SDS011;21234;48.690;9.016;2022-11-20T12:55:12;2.63;;;0.90;;
705;SDS011;21234;48.690;9.016;2022-11-20T12:57:45;1.63;;;0.63;;
705;SDS011;21234;48.690;9.016;2022-11-20T13:00:17;2.70;;;1.60;;
705;SDS011;21234;48.690;9.016;2022-11-20T13:05:49;2.93;;;0.97;;
705;SDS011;21234;48.690;9.016;2022-11-20T13:08:22;2.93;;;0.77;;
705;SDS011;21234;48.690;9.016;2022-11-20T13:10:54;1.30;;;0.80;;
705;SDS011;21234;48.690;9.016;2022-11-20T13:13:29;1.90;;;0.60;;
705;SDS011;21234;48.690;9.016;2022-11-20T13:16:06;3.03;;;0.80;;
705;SDS011;21234;48.690;9.016;2022-11-20T13:18:39;1.17;;;1.00;;
705;SDS011;21234;48.690;9.016;2022-11-20T13:21:13;2.20;;;1.00;;
705;SDS011;21234;48.690;9.016;2022-11-20T13:23:41;0.60;;;0.50;;
705;SDS011;21234;48.690;9.016;2022-11-20T13:26:15;1.60;;;0.47;;
705;SDS011;21234;48.690;9.016;2022-11-20T13:28:45;1.83;;;0.60;;
705;SDS011;21234;48.690;9.016;2022-11-20T13:31:23;2.60;;;0.90;;
705;SDS011;21234;48.690;9.016;2022-11-20T13:33:58;0.80;;;0.80;;
705;SDS011;21234;48.690;9.016;2022-11-20T13:36:29;1.20;;;0.67;;
705;SDS011;21234;48.690;9.016;2022-11-20T13:38:57;2.30;;;0.80;;
705;SDS011;21234;48.690;9.016;2022-11-20T13:41:26;1.03;;;0.70;;
705;SDS011;21234;48.690;9.016;2022-11-20T13:43:58;1.70;;;1.10;;
705;SDS011;21234;48.690;9.016;2022-11-20T13:46:35;1.37;;;1.03;;
705;SDS011;21234;48.690;9.016;2022-11-20T13:49:07;1.30;;;1.00;;
705;SDS011;21234;48.690;9.016;2022-11-20T13:51:37;0.97;;;0.70;;
705;SDS011;21234;48.690;9.016;2022-11-20T13:57:22;1.60;;;1.20;;
705;SDS011;21234;48.690;9.016;2022-11-20T14:00:04;2.87;;;2.27;;
705;SDS011;21234;48.690;9.016;2022-11-20T14:02:38;1.90;;;1.03;;
705;SDS011;21234;48.690;9.016;2022-11-20T14:05:05;1.00;;;0.80;;
705;SDS011;21234;48.690;9.016;2022-11-20T14:07:41;1.03;;;0.83;;
705;SDS011;21234;48.690;9.016;2022-11-20T14:10:18;2.10;;;0.93;;
705;SDS011;21234;48.690;9.016;2022-11-20T14:12:47;1.30;;;1.03;;
705;SDS011;21234;48.690;9.016;2022-11-20T14:15:23;4.63;;;1.33;;
705;SDS011;21234;48.690;9.016;2022-11-20T14:17:51;1.30;;;1.20;;
705;SDS011;21234;48.690;9.016;2022-11-20T14:20:18;1.00;;;0.60;;
705;SDS011;21234;48.690;9.016;2022-11-20T14:22:48;2.70;;;0.83;;
705;SDS011;21234;48.690;9.016;2022-11-20T14:25:20;2.07;;;1.00;;
705;SDS011;21234;48.690;9.016;2022-11-20T14:27:53;1.33;;;0.93;;
705;SDS011;21234;48.690;9.016;2022-11-20T14:30:22;1.30;;;1.13;;
705;SDS011;21234;48.690;9.016;2022-11-20T14:32:50;3.20;;;1.77;;
705;SDS011;21234;48.690;9.016;2022-11-20T14:35:20;3.93;;;2.73;;
705;SDS011;21234;48.690;9.016;2022-11-20T14:37:49;1.63;;;1.30;;
705;SDS011;21234;48.690;9.016;2022-11-20T14:40:24;1.37;;;1.27;;
705;SDS011;21234;48.690;9.016;2022-11-20T14:42:55;3.83;;;2.87;;
705;SDS011;21234;48.690;9.016;2022-11-20T14:45:22;2.07;;;1.87;;
705;SDS011;21234;48.690;9.016;2022-11-20T14:47:50;3.90;;;3.17;;
705;SDS011;21234;48.690;9.016;2022-11-20T14:50:19;8.43;;;5.77;;
705;SDS011;21234;48.690;9.016;2022-11-20T14:52:52;5.63;;;2.77;;
705;SDS011;21234;48.690;9.016;2022-11-20T14:55:29;3.97;;;3.27;;
705;SDS011;21234;48.690;9.016;2022-11-20T14:58:00;4.00;;;2.50;;
705;SDS011;21234;48.690;9.016;2022-11-20T15:00:28;4.40;;;2.60;;
705;SDS011;21234;48.690;9.016;2022-11-20T15:02:56;3.70;;;2.60;;
705;SDS011;21234;48.690;9.016;2022-11-20T15:05:23;3.70;;;3.50;;
705;SDS011;21234;48.690;9.016;2022-11-20T15:07:52;2.97;;;2.40;;
705;SDS011;21234;48.690;9.016;2022-11-20T15:10:30;2.93;;;2.73;;
705;SDS011;21234;48.690;9.016;2022-11-20T15:12:59;1.53;;;1.43;;
705;SDS011;21234;48.690;9.016;2022-11-20T15:15:30;1.70;;;1.33;;
705;SDS011;21234;48.690;9.016;2022-11-20T15:18:01;3.23;;;1.57;;
705;SDS011;21234;48.690;9.016;2022-11-20T15:20:30;1.47;;;1.17;;
705;SDS011;21234;48.690;9.016;2022-11-20T15:22:59;1.27;;;1.17;;
705;SDS011;21234;48.690;9.016;2022-11-20T15:25:25;4.10;;;1.30;;
705;SDS011;21234;48.690;9.016;2022-11-20T15:27:54;1.60;;;1.10;;
705;SDS011;21234;48.690;9.016;2022-11-20T15:30:23;2.77;;;0.90;;
705;SDS011;21234;48.690;9.016;2022-11-20T15:32:50;1.43;;;1.30;;
705;SDS011;21234;48.690;9.016;2022-11-20T15:35:17;1.63;;;0.80;;
705;SDS011;21234;48.690;9.016;2022-11-20T15:37:44;1.43;;;0.83;;
705;SDS011;21234;48.690;9.016;2022-11-20T15:40:11;2.07;;;1.00;;
705;SDS011;21234;48.690;9.016;2022-11-20T15:42:38;1.33;;;1.23;;
705;SDS011;21234;48.690;9.016;2022-11-20T15:45:26;3.27;;;1.20;;
705;SDS011;21234;48.690;9.016;2022-11-20T15:47:54;5.23;;;4.37;;
705;SDS011;21234;48.690;9.016;2022-11-20T15:50:21;7.73;;;6.97;;